createdAt,value
2018-07-11T00:00:03.393Z,18.20
2018-07-11T00:02:44.717Z,16.87
2018-07-11T00:05:27.088Z,17.50
2018-07-11T00:08:08.614Z,17.77
2018-07-11T00:10:50.836Z,17.97
2018-07-11T00:13:32.288Z,18.10
2018-07-11T00:16:14.399Z,15.37
2018-07-11T00:18:56.434Z,14.00
2018-07-11T00:21:37.935Z,13.80
2018-07-11T00:24:19.396Z,13.83
2018-07-11T00:27:01.672Z,13.53
2018-07-11T00:29:43.072Z,13.47
2018-07-11T00:32:24.856Z,13.30
2018-07-11T00:35:06.288Z,13.60
2018-07-11T00:37:47.782Z,12.73
2018-07-11T00:40:29.425Z,12.67
2018-07-11T00:43:10.801Z,11.73
2018-07-11T00:45:53.674Z,12.57
2018-07-11T00:48:35.962Z,13.13
2018-07-11T00:51:17.504Z,13.50
2018-07-11T00:53:58.878Z,12.83
2018-07-11T00:56:41.580Z,13.20
2018-07-11T00:59:26.204Z,13.40
2018-07-11T01:02:08.075Z,12.73
2018-07-11T01:04:49.457Z,14.27
2018-07-11T01:07:31.676Z,14.57
2018-07-11T01:10:13.030Z,15.37
2018-07-11T01:12:54.794Z,15.00
2018-07-11T01:15:36.169Z,13.37
2018-07-11T01:18:18.288Z,13.67
2018-07-11T01:20:59.727Z,13.23
2018-07-11T01:23:41.298Z,14.33
2018-07-11T01:26:27.704Z,14.57
2018-07-11T01:29:09.837Z,14.97
2018-07-11T01:31:51.778Z,14.67
2018-07-11T01:34:33.258Z,13.97
2018-07-11T01:37:14.734Z,13.90
2018-07-11T01:39:57.689Z,13.43
2018-07-11T01:42:40.178Z,12.63
2018-07-11T01:45:21.885Z,13.03
2018-07-11T01:48:03.346Z,12.80
2018-07-11T01:50:45.560Z,13.80
2018-07-11T01:53:28.049Z,13.37
2018-07-11T01:56:09.627Z,12.73
2018-07-11T01:58:51.896Z,12.53
2018-07-11T02:01:37.147Z,11.87
2018-07-11T02:04:18.760Z,12.40
2018-07-11T02:07:06.670Z,12.17
2018-07-11T02:09:48.070Z,12.53
2018-07-11T02:12:29.422Z,12.80
2018-07-11T02:15:11.926Z,12.13
2018-07-11T02:17:55.834Z,13.13
2018-07-11T02:20:37.176Z,12.27
2018-07-11T02:23:19.532Z,12.33
2018-07-11T02:26:01.939Z,12.00
2018-07-11T02:28:43.394Z,11.57
2018-07-11T02:31:25.620Z,12.43
2018-07-11T02:34:08.157Z,12.60
2018-07-11T02:36:49.676Z,10.60
2018-07-11T02:39:35.105Z,10.63
2018-07-11T02:42:16.573Z,10.40
2018-07-11T02:44:57.989Z,10.53
2018-07-11T02:47:42.382Z,9.60
2018-07-11T02:50:23.876Z,10.20
2018-07-11T02:53:05.568Z,9.97
2018-07-11T02:55:47.079Z,9.83
2018-07-11T02:58:28.703Z,10.77
2018-07-11T03:01:10.389Z,10.20
2018-07-11T03:03:52.353Z,10.87
2018-07-11T03:06:35.899Z,11.03
2018-07-11T03:09:17.457Z,9.97
2018-07-11T03:11:58.804Z,9.30
2018-07-11T03:14:45.637Z,8.93
2018-07-11T03:17:27.194Z,8.70
2018-07-11T03:20:08.677Z,8.90
2018-07-11T03:22:51.117Z,8.87
2018-07-11T03:25:32.497Z,8.80
2018-07-11T03:28:13.840Z,9.20
2018-07-11T03:30:55.982Z,9.27
2018-07-11T03:33:37.509Z,8.97
2018-07-11T03:36:18.809Z,8.07
2018-07-11T03:39:00.839Z,9.20
2018-07-11T03:41:42.195Z,9.10
2018-07-11T03:44:23.695Z,10.07
2018-07-11T03:47:05.226Z,9.50
2018-07-11T03:49:46.523Z,9.20
2018-07-11T03:52:29.190Z,9.10
2018-07-11T03:55:10.568Z,9.20
2018-07-11T03:57:53.746Z,9.40
2018-07-11T04:00:35.566Z,8.33
2018-07-11T04:03:17.189Z,9.03
2018-07-11T04:05:58.669Z,8.30
2018-07-11T04:08:40.028Z,7.90
2018-07-11T04:11:22.685Z,8.63
2018-07-11T04:14:03.974Z,8.13
2018-07-11T04:16:45.312Z,7.97
2018-07-11T04:19:27.138Z,8.77
2018-07-11T04:22:08.385Z,8.63
2018-07-11T04:24:49.753Z,8.07
2018-07-11T04:27:31.066Z,8.30
2018-07-11T04:30:12.437Z,8.40
2018-07-11T04:32:55.043Z,8.00
2018-07-11T04:35:36.237Z,8.57
2018-07-11T04:38:17.514Z,8.90
2018-07-11T04:40:58.970Z,8.70
2018-07-11T04:43:40.452Z,8.57
2018-07-11T04:46:23.853Z,8.57
2018-07-11T04:49:05.646Z,9.03
2018-07-11T04:51:47.402Z,9.63
2018-07-11T04:54:29.061Z,8.97
2018-07-11T04:57:10.492Z,8.93
2018-07-11T04:59:54.745Z,9.20
2018-07-11T05:02:36.157Z,8.77
2018-07-11T05:05:17.642Z,8.53
2018-07-11T05:07:59.131Z,8.00
2018-07-11T05:10:40.467Z,8.43
2018-07-11T05:13:23.736Z,8.07
2018-07-11T05:16:05.192Z,7.70
2018-07-11T05:18:47.650Z,8.17
2018-07-11T05:21:28.976Z,7.90
2018-07-11T05:24:10.199Z,7.53
2018-07-11T05:26:52.650Z,7.43
2018-07-11T05:29:34.182Z,8.50
2018-07-11T05:32:15.477Z,8.77
2018-07-11T05:34:56.805Z,8.37
2018-07-11T05:37:38.213Z,8.90
2018-07-11T05:40:19.609Z,8.90
2018-07-11T05:43:00.965Z,9.20
2018-07-11T05:45:42.306Z,9.27
2018-07-11T05:48:25.410Z,8.80
2018-07-11T05:51:06.664Z,9.57
2018-07-11T05:53:48.028Z,8.50
2018-07-11T05:56:29.462Z,8.60
2018-07-11T05:59:10.792Z,8.10
2018-07-11T06:01:53.874Z,8.43
2018-07-11T06:04:35.054Z,8.63
2018-07-11T06:07:16.396Z,8.83
2018-07-11T06:09:57.753Z,8.60
2018-07-11T06:12:39.163Z,9.07
2018-07-11T06:15:21.060Z,9.00
2018-07-11T06:18:02.409Z,8.53
2018-07-11T06:20:43.780Z,10.00
2018-07-11T06:23:26.161Z,9.33
2018-07-11T06:26:08.011Z,9.60
2018-07-11T06:28:49.513Z,8.70
2018-07-11T06:31:31.187Z,8.87
2018-07-11T06:34:12.477Z,9.20
2018-07-11T06:36:55.021Z,9.00
2018-07-11T06:39:36.359Z,9.03
2018-07-11T06:42:17.678Z,9.67
2018-07-11T06:45:00.878Z,8.73
2018-07-11T06:47:42.553Z,8.87
2018-07-11T06:50:24.680Z,8.87
2018-07-11T06:53:05.870Z,8.93
2018-07-11T06:55:47.322Z,8.93
2018-07-11T06:58:28.788Z,9.07
2018-07-11T07:01:10.678Z,9.60
2018-07-11T07:03:52.632Z,10.20
2018-07-11T07:06:34.726Z,10.03
2018-07-11T07:09:16.152Z,10.47
2018-07-11T07:11:58.110Z,10.90
2018-07-11T07:14:39.469Z,10.40
2018-07-11T07:17:21.912Z,10.07
2018-07-11T07:20:03.360Z,9.70
2018-07-11T07:22:44.788Z,10.27
2018-07-11T07:25:27.579Z,10.27
2018-07-11T07:28:08.888Z,10.30
2018-07-11T07:30:51.196Z,9.87
2018-07-11T07:33:33.701Z,10.67
2018-07-11T07:36:15.260Z,10.57
2018-07-11T07:38:56.562Z,9.90
2018-07-11T07:41:37.914Z,10.47
2018-07-11T07:44:19.241Z,10.10
2018-07-11T07:47:01.913Z,9.67
2018-07-11T07:49:43.168Z,10.53
2018-07-11T07:52:25.253Z,10.33
2018-07-11T07:55:06.577Z,9.23
2018-07-11T07:57:48.037Z,9.93
2018-07-11T08:00:29.377Z,9.30
2018-07-11T08:03:10.706Z,10.40
2018-07-11T08:05:53.640Z,10.80
2018-07-11T08:08:35.012Z,10.10
2018-07-11T08:11:16.192Z,11.57
2018-07-11T08:13:57.489Z,11.33
2018-07-11T08:16:38.796Z,12.70
2018-07-11T08:19:20.878Z,11.80
2018-07-11T08:22:19.059Z,12.60
2018-07-11T08:25:17.369Z,15.23
2018-07-11T08:28:15.260Z,12.50
2018-07-11T08:31:23.712Z,13.00
2018-07-11T08:34:24.596Z,12.87
2018-07-11T08:37:29.868Z,12.53
2018-07-11T08:41:32.590Z,12.60
2018-07-11T08:45:41.370Z,12.17
2018-07-11T08:48:48.306Z,11.70
2018-07-11T08:51:57.077Z,14.60
2018-07-11T08:54:58.144Z,12.73
2018-07-11T09:00:00.765Z,11.97
2018-07-11T09:07:07.824Z,11.87
2018-07-11T09:14:16.668Z,12.20
2018-07-11T09:19:31.796Z,13.97
2018-07-11T09:24:41.303Z,13.47
2018-07-11T09:27:24.683Z,14.37
2018-07-11T09:30:06.167Z,13.90
2018-07-11T09:32:47.521Z,15.43
2018-07-11T09:35:28.868Z,14.40
2018-07-11T09:38:10.405Z,15.00
2018-07-11T09:40:54.667Z,15.63
2018-07-11T09:43:35.907Z,15.20
2018-07-11T09:46:17.435Z,15.73
2018-07-11T09:48:58.898Z,16.80
2018-07-11T09:51:40.405Z,17.77
2018-07-11T09:54:22.613Z,16.97
2018-07-11T09:57:03.991Z,16.57
2018-07-11T09:59:45.334Z,16.23
2018-07-11T10:02:26.973Z,16.37
2018-07-11T10:05:08.485Z,15.43
2018-07-11T10:07:51.026Z,15.20
2018-07-11T10:10:32.434Z,17.73
2018-07-11T10:13:13.969Z,17.20
2018-07-11T10:15:55.883Z,18.27
2018-07-11T10:18:37.237Z,18.47
2018-07-11T10:21:18.644Z,19.60
2018-07-11T10:24:00.716Z,20.47
2018-07-11T10:26:42.824Z,20.90
2018-07-11T10:29:24.598Z,23.07
2018-07-11T10:32:06.144Z,20.60
2018-07-11T10:34:47.480Z,21.27
2018-07-11T10:37:28.890Z,22.40
2018-07-11T10:40:10.253Z,24.23
2018-07-11T10:42:52.357Z,23.37
2018-07-11T10:45:33.744Z,23.97
2018-07-11T10:48:15.089Z,22.47
2018-07-11T10:50:56.695Z,22.53
2018-07-11T10:53:38.148Z,22.70
2018-07-11T10:56:19.623Z,23.43
2018-07-11T10:59:01.097Z,22.67
2018-07-11T11:01:42.436Z,21.87
2018-07-11T11:04:24.505Z,21.40
2018-07-11T11:07:05.888Z,20.77
2018-07-11T11:09:47.276Z,22.33
2018-07-11T11:12:28.489Z,22.00
2018-07-11T11:15:10.224Z,21.97
2018-07-11T11:17:52.222Z,21.40
2018-07-11T11:20:33.460Z,21.83
2018-07-11T11:23:15.043Z,19.17
2018-07-11T11:25:56.614Z,17.83
2018-07-11T11:28:37.948Z,19.07
2018-07-11T11:31:19.284Z,18.67
2018-07-11T11:34:00.721Z,18.30
2018-07-11T11:36:42.199Z,19.53
2018-07-11T11:39:24.677Z,20.27
2018-07-11T11:42:06.316Z,20.03
2018-07-11T11:44:47.674Z,19.10
2018-07-11T11:47:29.239Z,19.90
2018-07-11T11:50:10.504Z,21.00
2018-07-11T11:53:23.673Z,20.43
2018-07-11T11:56:05.152Z,19.97
2018-07-11T11:58:46.534Z,23.03
2018-07-11T12:01:27.898Z,22.77
2018-07-11T12:04:09.285Z,22.57
2018-07-11T12:06:51.678Z,22.40
2018-07-11T12:09:34.474Z,22.83
2018-07-11T12:12:15.813Z,23.33
2018-07-11T12:14:57.185Z,23.27
2018-07-11T12:17:38.772Z,24.00
2018-07-11T12:20:20.964Z,21.27
2018-07-11T12:23:02.415Z,22.93
2018-07-11T12:26:22.523Z,22.53
2018-07-11T12:29:03.937Z,14.33
2018-07-11T12:31:45.325Z,16.70
2018-07-11T12:34:26.686Z,15.47
2018-07-11T12:37:08.029Z,14.80
2018-07-11T12:39:51.028Z,10.90
2018-07-11T12:42:33.350Z,11.43
2018-07-11T12:45:14.766Z,10.73
2018-07-11T12:48:01.837Z,10.70
2018-07-11T12:50:43.749Z,10.03
2018-07-11T12:53:26.098Z,7.83
2018-07-11T12:56:07.573Z,8.00
2018-07-11T12:58:48.829Z,8.50
2018-07-11T13:01:31.765Z,10.73
2018-07-11T13:04:13.111Z,10.20
2018-07-11T13:06:56.373Z,10.90
2018-07-11T13:09:38.456Z,8.23
2018-07-11T13:12:20.809Z,6.67
2018-07-11T13:15:02.152Z,8.37
2018-07-11T13:17:43.597Z,8.43
2018-07-11T13:20:25.245Z,9.93
2018-07-11T13:23:07.095Z,8.67
2018-07-11T13:25:48.594Z,8.80
2018-07-11T13:28:30.303Z,8.50
2018-07-11T13:31:11.733Z,8.60
2018-07-11T13:33:53.741Z,9.47
2018-07-11T13:36:35.086Z,8.93
2018-07-11T13:39:20.781Z,8.30
2018-07-11T13:42:02.170Z,9.40
2018-07-11T13:44:43.490Z,8.70
2018-07-11T13:47:27.535Z,9.83
2018-07-11T13:50:08.701Z,8.97
2018-07-11T13:52:50.913Z,9.63
2018-07-11T13:55:32.750Z,9.30
2018-07-11T13:58:14.301Z,9.80
2018-07-11T14:00:56.914Z,11.03
2018-07-11T14:03:38.280Z,10.40
2018-07-11T14:06:22.641Z,10.77
2018-07-11T14:09:05.980Z,11.77
2018-07-11T14:11:47.425Z,12.13
2018-07-11T14:14:29.801Z,13.43
2018-07-11T14:17:11.220Z,15.23
2018-07-11T14:19:53.665Z,15.03
2018-07-11T14:22:35.206Z,15.03
2018-07-11T14:25:18.079Z,16.83
2018-07-11T14:28:01.180Z,15.90
2018-07-11T14:30:43.620Z,15.83
2018-07-11T14:33:30.677Z,15.63
2018-07-11T14:36:12.011Z,16.97
2018-07-11T14:38:55.656Z,15.83
2018-07-11T14:41:39.603Z,16.57
2018-07-11T14:44:21.631Z,17.87
2018-07-11T14:47:09.460Z,17.13
2018-07-11T14:49:57.049Z,17.83
2018-07-11T14:52:44.257Z,18.97
2018-07-11T14:55:26.530Z,16.57
2018-07-11T14:58:12.828Z,16.87
2018-07-11T15:00:55.183Z,16.60
2018-07-11T15:03:36.564Z,16.80
2018-07-11T15:06:18.926Z,18.30
2018-07-11T15:09:00.624Z,18.00
2018-07-11T15:11:42.109Z,19.67
2018-07-11T15:14:25.512Z,19.67
2018-07-11T15:17:06.957Z,18.10
2018-07-11T15:19:49.377Z,19.73
2018-07-11T15:22:31.012Z,19.07
2018-07-11T15:25:13.791Z,17.70
2018-07-11T15:27:56.814Z,17.23
2018-07-11T15:30:42.866Z,19.53
2018-07-11T15:33:27.225Z,19.73
2018-07-11T15:36:08.680Z,19.57
2018-07-11T15:38:51.869Z,18.90
2018-07-11T15:41:33.770Z,20.10
2018-07-11T15:44:17.402Z,19.47
2018-07-11T15:46:59.813Z,18.00
2018-07-11T15:49:43.926Z,17.47
2018-07-11T15:52:26.905Z,18.77
2018-07-11T15:55:08.972Z,19.33
2018-07-11T15:57:58.851Z,19.07
2018-07-11T16:00:41.871Z,19.73
2018-07-11T16:03:26.986Z,22.77
2018-07-11T16:06:08.869Z,22.80
2018-07-11T16:08:54.988Z,22.67
2018-07-11T16:11:39.418Z,22.23
2018-07-11T16:14:27.331Z,23.47
2018-07-11T16:17:08.902Z,24.60
2018-07-11T16:19:54.815Z,26.60
2018-07-11T16:22:37.220Z,25.10
2018-07-11T16:25:21.869Z,23.50
2018-07-11T16:28:04.074Z,24.50
2018-07-11T16:30:45.526Z,22.60
2018-07-11T16:33:28.134Z,22.50
2018-07-11T16:36:09.600Z,22.70
2018-07-11T16:38:54.801Z,21.63
2018-07-11T16:41:39.512Z,21.30
2018-07-11T16:44:22.517Z,22.10
2018-07-11T16:47:08.405Z,23.03
2018-07-11T16:49:51.709Z,22.57
2018-07-11T16:52:33.033Z,23.60
2018-07-11T16:55:15.659Z,22.93
2018-07-11T16:57:58.330Z,22.77
2018-07-11T17:00:41.196Z,22.87
2018-07-11T17:03:27.821Z,24.33
2018-07-11T17:06:10.461Z,21.97
2018-07-11T17:08:53.019Z,21.67
2018-07-11T17:11:35.549Z,22.47
2018-07-11T17:14:18.716Z,22.77
2018-07-11T17:17:02.921Z,20.07
2018-07-11T17:20:00.677Z,21.40
2018-07-11T17:23:05.054Z,20.77
2018-07-11T17:25:47.148Z,20.77
2018-07-11T17:28:31.788Z,21.03
2018-07-11T17:31:17.220Z,23.73
2018-07-11T17:34:00.062Z,23.13
2018-07-11T17:36:41.786Z,25.43
2018-07-11T17:39:24.570Z,23.93
2018-07-11T17:42:06.981Z,24.60
2018-07-11T17:44:58.470Z,26.40
2018-07-11T17:49:57.997Z,26.67
2018-07-11T17:52:55.717Z,30.43
2018-07-11T17:55:45.604Z,28.63
2018-07-11T17:58:40.934Z,29.43
2018-07-11T18:01:38.730Z,28.17
2018-07-11T18:04:53.267Z,30.23
2018-07-11T18:07:46.305Z,29.00
2018-07-11T18:10:44.426Z,30.67
2018-07-11T18:13:42.347Z,30.90
2018-07-11T18:16:33.050Z,29.90
2018-07-11T18:19:38.060Z,28.47
2018-07-11T18:22:33.312Z,29.43
2018-07-11T18:25:29.995Z,31.63
2018-07-11T18:28:25.739Z,30.57
2018-07-11T18:33:27.549Z,30.13
2018-07-11T18:36:23.769Z,32.80
2018-07-11T18:39:29.933Z,33.80
2018-07-11T18:42:57.836Z,33.27
2018-07-11T18:46:14.742Z,35.77
2018-07-11T18:53:15.984Z,34.63
2018-07-11T18:56:12.798Z,30.50
2018-07-11T18:59:07.333Z,33.37
2018-07-11T19:02:49.177Z,33.43
2018-07-11T19:06:50.497Z,32.93
2018-07-11T19:09:56.924Z,32.77
2018-07-11T19:12:55.873Z,33.37
2018-07-11T19:15:46.834Z,31.63
2018-07-11T19:18:42.415Z,32.87
2018-07-11T19:24:11.580Z,31.67
2018-07-11T19:29:07.010Z,32.50
2018-07-11T19:32:10.480Z,33.63
2018-07-11T19:37:09.752Z,32.83
2018-07-11T19:40:14.781Z,33.77
2018-07-11T19:43:17.661Z,32.60
2018-07-11T19:46:14.824Z,31.60
2018-07-11T20:01:55.761Z,30.83
2018-07-11T20:04:39.187Z,28.47
2018-07-11T20:07:22.889Z,28.87
2018-07-11T20:10:04.674Z,25.07
2018-07-11T20:12:46.988Z,23.63
2018-07-11T20:15:28.337Z,18.53
2018-07-11T20:18:10.663Z,19.70
2018-07-11T20:20:53.030Z,19.83
2018-07-11T20:23:35.441Z,19.23
2018-07-11T20:26:17.834Z,19.07
2018-07-11T20:29:00.124Z,17.10
2018-07-11T20:31:50.363Z,15.53
2018-07-11T20:34:32.192Z,15.50
2018-07-11T20:37:14.177Z,18.30
2018-07-11T20:39:56.399Z,18.33
2018-07-11T20:42:38.133Z,15.20
2018-07-11T20:45:19.583Z,13.63
2018-07-11T20:48:04.503Z,12.83
2018-07-11T20:50:46.257Z,12.13
2018-07-11T20:53:30.132Z,12.73
2018-07-11T20:56:11.576Z,13.33
2018-07-11T20:59:11.613Z,12.77
2018-07-11T21:02:10.777Z,12.23
2018-07-11T21:06:10.748Z,12.27
2018-07-11T21:11:23.429Z,10.60
2018-07-11T21:14:35.489Z,9.77
2018-07-11T21:17:53.005Z,9.13
2018-07-11T21:20:37.968Z,7.17
2018-07-11T21:23:20.373Z,7.43
2018-07-11T21:26:02.407Z,8.40
2018-07-11T21:28:43.818Z,7.23
2018-07-11T21:31:26.223Z,6.00
2018-07-11T21:34:08.644Z,5.40
2018-07-11T21:36:50.125Z,7.10
2018-07-11T21:39:33.777Z,7.63
2018-07-11T21:42:15.577Z,6.80
2018-07-11T21:44:57.417Z,7.27
2018-07-11T21:47:38.974Z,7.50
2018-07-11T21:50:20.407Z,6.50
2018-07-11T21:53:02.297Z,6.47
2018-07-11T21:55:44.254Z,6.77
2018-07-11T21:58:28.155Z,7.73
2018-07-11T22:01:11.069Z,6.90
2018-07-11T22:03:53.359Z,6.63
2018-07-11T22:06:35.650Z,7.03
2018-07-11T22:09:17.289Z,7.20
2018-07-11T22:12:04.538Z,7.43
2018-07-11T22:14:46.129Z,8.00
2018-07-11T22:18:42.492Z,7.70
2018-07-11T22:21:22.387Z,6.37
2018-07-11T22:24:02.042Z,7.70
2018-07-11T22:26:43.664Z,7.30
2018-07-11T22:29:24.461Z,7.80
2018-07-11T22:32:04.099Z,8.23
2018-07-11T22:34:43.826Z,8.50
2018-07-11T22:37:23.822Z,8.40
2018-07-11T22:40:03.800Z,7.67
2018-07-11T22:42:43.718Z,8.37
2018-07-11T22:45:23.633Z,9.60
2018-07-11T22:48:03.319Z,9.87
2018-07-11T22:50:42.848Z,9.57
2018-07-11T22:53:23.447Z,9.17
2018-07-11T22:56:03.197Z,10.00
2018-07-11T22:58:42.799Z,9.40
2018-07-11T23:01:22.399Z,9.23
2018-07-11T23:04:01.862Z,9.90
2018-07-11T23:06:41.454Z,11.13
2018-07-11T23:09:22.381Z,11.07
2018-07-11T23:12:16.561Z,10.83
2018-07-11T23:14:56.535Z,13.13
2018-07-11T23:17:36.119Z,14.23
2018-07-11T23:20:15.589Z,15.13
2018-07-11T23:22:55.274Z,15.63
2018-07-11T23:25:34.738Z,17.60
2018-07-11T23:28:14.317Z,19.03
2018-07-11T23:30:54.019Z,20.73
2018-07-11T23:33:33.597Z,23.47
2018-07-11T23:36:13.207Z,23.83
2018-07-11T23:38:53.803Z,23.07
2018-07-11T23:41:33.435Z,23.07
2018-07-11T23:44:13.075Z,23.80
2018-07-11T23:46:53.657Z,22.70
2018-07-11T23:49:33.249Z,20.67
2018-07-11T23:52:12.866Z,19.27
2018-07-11T23:54:52.366Z,21.13
2018-07-11T23:57:32.002Z,20.80
